createdAt,value
2023-01-23T00:01:13.411Z,97.50
2023-01-23T00:03:40.089Z,97.20
2023-01-23T00:06:10.172Z,97.40
2023-01-23T00:08:39.875Z,97.60
2023-01-23T00:11:12.480Z,97.80
2023-01-23T00:13:39.675Z,97.80
2023-01-23T00:16:08.359Z,97.50
2023-01-23T00:18:35.870Z,97.30
2023-01-23T00:21:15.527Z,97.10
2023-01-23T00:23:44.110Z,97.70
2023-01-23T00:26:15.474Z,98.20
2023-01-23T00:28:44.425Z,98.20
2023-01-23T00:31:21.817Z,98.30
2023-01-23T00:33:54.527Z,98.20
2023-01-23T00:36:23.427Z,98.30
2023-01-23T00:38:50.778Z,98.30
2023-01-23T00:41:17.485Z,98.30
2023-01-23T00:43:44.877Z,98.30
2023-01-23T00:46:11.864Z,98.10
2023-01-23T00:48:39.989Z,98.20
2023-01-23T00:51:06.678Z,97.80
2023-01-23T00:53:33.386Z,97.80
2023-01-23T00:56:00.038Z,97.60
2023-01-23T00:58:26.782Z,97.60
2023-01-23T01:00:54.193Z,97.40
2023-01-23T01:03:20.977Z,97.50
2023-01-23T01:05:48.079Z,97.60
2023-01-23T01:08:14.686Z,97.40
2023-01-23T01:10:41.746Z,97.50
2023-01-23T01:13:09.895Z,97.00
2023-01-23T01:15:37.616Z,96.90
2023-01-23T01:18:04.477Z,96.90
2023-01-23T01:20:31.313Z,97.10
2023-01-23T01:22:58.801Z,97.00
2023-01-23T01:25:26.152Z,97.00
2023-01-23T01:27:55.910Z,97.10
2023-01-23T01:30:22.858Z,97.50
2023-01-23T01:32:49.697Z,97.50
2023-01-23T01:35:16.381Z,97.30
2023-01-23T01:37:43.058Z,97.30
2023-01-23T01:40:15.426Z,97.20
2023-01-23T01:42:44.472Z,97.10
2023-01-23T01:46:08.039Z,97.00
2023-01-23T01:48:56.075Z,97.20
2023-01-23T01:51:29.124Z,97.20
2023-01-23T01:54:10.199Z,97.90
2023-01-23T01:56:44.660Z,97.80
2023-01-23T01:59:13.041Z,97.30
2023-01-23T02:01:42.349Z,97.30
2023-01-23T02:04:09.623Z,96.70
2023-01-23T02:06:36.425Z,96.60
2023-01-23T02:09:10.468Z,96.60
2023-01-23T02:11:37.680Z,96.70
2023-01-23T02:14:04.689Z,96.60
2023-01-23T02:16:40.287Z,96.80
2023-01-23T02:19:37.438Z,96.70
2023-01-23T02:22:21.508Z,97.10
2023-01-23T02:25:08.718Z,97.20
2023-01-23T02:27:35.429Z,97.10
2023-01-23T02:30:03.429Z,96.90
2023-01-23T02:32:32.002Z,96.70
2023-01-23T02:35:04.509Z,97.10
2023-01-23T02:37:34.400Z,96.90
2023-01-23T02:40:03.195Z,96.60
2023-01-23T02:42:33.453Z,96.50
2023-01-23T02:45:00.549Z,96.30
2023-01-23T02:47:29.423Z,96.40
2023-01-23T02:49:57.080Z,96.00
2023-01-23T02:52:23.856Z,96.10
2023-01-23T02:54:50.490Z,96.70
2023-01-23T02:57:17.183Z,96.90
2023-01-23T03:00:02.317Z,96.70
2023-01-23T03:02:31.711Z,97.00
2023-01-23T03:04:58.426Z,97.60
2023-01-23T03:07:27.817Z,98.20
2023-01-23T03:09:54.481Z,98.30
2023-01-23T03:12:21.249Z,98.00
2023-01-23T03:14:53.719Z,98.00
2023-01-23T03:17:21.159Z,98.30
2023-01-23T03:19:47.813Z,98.00
2023-01-23T03:22:14.993Z,98.30
2023-01-23T03:24:41.791Z,98.30
2023-01-23T03:27:08.561Z,98.20
2023-01-23T03:29:59.753Z,97.90
2023-01-23T03:32:26.398Z,97.50
2023-01-23T03:34:55.301Z,97.80
2023-01-23T03:37:22.636Z,98.10
2023-01-23T03:40:08.797Z,97.80
2023-01-23T03:42:36.079Z,97.30
2023-01-23T03:45:04.825Z,97.50
2023-01-23T03:47:34.082Z,97.10
2023-01-23T03:50:00.787Z,97.10
2023-01-23T03:52:30.725Z,96.90
2023-01-23T03:54:57.800Z,97.00
2023-01-23T03:57:24.452Z,96.70
2023-01-23T04:00:20.817Z,96.60
2023-01-23T04:02:54.920Z,97.00
2023-01-23T04:05:22.060Z,97.10
2023-01-23T04:07:49.096Z,97.00
2023-01-23T04:10:16.187Z,96.50
2023-01-23T04:12:47.727Z,97.20
2023-01-23T04:15:14.533Z,97.30
2023-01-23T04:17:42.406Z,97.10
2023-01-23T04:20:10.442Z,97.20
2023-01-23T04:22:37.281Z,96.90
2023-01-23T04:25:06.111Z,96.90
2023-01-23T04:27:39.035Z,97.10
2023-01-23T04:30:07.638Z,97.40
2023-01-23T04:32:34.966Z,97.40
2023-01-23T04:35:01.925Z,97.90
2023-01-23T04:37:28.942Z,97.60
2023-01-23T04:39:56.271Z,97.50
2023-01-23T04:42:23.300Z,97.50
2023-01-23T04:45:10.235Z,97.50
2023-01-23T04:48:08.006Z,97.00
2023-01-23T04:50:37.106Z,96.80
2023-01-23T04:53:05.489Z,97.10
2023-01-23T04:55:33.950Z,97.10
2023-01-23T04:58:03.090Z,97.30
2023-01-23T05:00:30.567Z,97.50
2023-01-23T05:02:59.385Z,97.00
2023-01-23T05:05:26.373Z,97.20
2023-01-23T05:07:57.585Z,97.30
2023-01-23T05:10:24.485Z,97.30
2023-01-23T05:12:51.618Z,97.20
2023-01-23T05:15:18.396Z,97.20
2023-01-23T05:17:46.696Z,97.40
2023-01-23T05:20:13.539Z,97.30
2023-01-23T05:22:52.854Z,97.00
2023-01-23T05:25:30.289Z,96.80
2023-01-23T05:27:59.775Z,96.90
2023-01-23T05:30:27.130Z,96.70
2023-01-23T05:33:05.137Z,96.80
2023-01-23T05:35:31.839Z,96.60
2023-01-23T05:37:58.528Z,96.50
2023-01-23T05:40:25.779Z,96.30
2023-01-23T05:43:21.511Z,96.30
2023-01-23T05:45:54.464Z,96.50
2023-01-23T05:48:30.880Z,96.70
2023-01-23T05:50:57.665Z,96.80
2023-01-23T05:53:25.604Z,97.10
2023-01-23T05:55:52.469Z,97.00
2023-01-23T05:58:20.187Z,96.90
2023-01-23T06:01:10.773Z,96.70
2023-01-23T06:03:55.983Z,97.00
2023-01-23T06:06:33.970Z,97.00
2023-01-23T06:09:00.810Z,96.90
2023-01-23T06:11:27.522Z,97.00
2023-01-23T06:13:54.167Z,96.70
2023-01-23T06:16:20.972Z,96.90
2023-01-23T06:18:47.773Z,97.10
2023-01-23T06:21:18.120Z,97.10
2023-01-23T06:23:46.109Z,97.00
2023-01-23T06:26:13.564Z,97.10
2023-01-23T06:28:40.775Z,97.40
2023-01-23T06:31:10.192Z,97.20
2023-01-23T06:33:51.516Z,97.80
2023-01-23T06:36:20.902Z,97.50
2023-01-23T06:38:48.278Z,97.30
2023-01-23T06:41:16.371Z,97.70
2023-01-23T06:43:50.887Z,97.80
2023-01-23T06:46:21.991Z,97.80
2023-01-23T06:48:48.777Z,97.80
2023-01-23T06:51:15.496Z,97.90
2023-01-23T06:53:44.176Z,97.90
2023-01-23T06:56:12.077Z,98.10
2023-01-23T06:58:39.141Z,98.30
2023-01-23T07:01:18.423Z,98.30
2023-01-23T07:04:11.099Z,98.30
2023-01-23T07:06:39.492Z,97.70
2023-01-23T07:09:06.389Z,97.60
2023-01-23T07:11:33.314Z,97.50
2023-01-23T07:14:00.150Z,97.60
2023-01-23T07:16:28.214Z,97.30
2023-01-23T07:18:59.037Z,97.10
2023-01-23T07:21:26.030Z,97.10
2023-01-23T07:23:52.783Z,96.80
2023-01-23T07:26:19.863Z,96.60
2023-01-23T07:28:46.606Z,96.70
2023-01-23T07:31:13.509Z,96.90
2023-01-23T07:33:40.243Z,96.90
2023-01-23T07:36:07.405Z,96.70
2023-01-23T07:38:34.651Z,96.60
2023-01-23T07:41:01.334Z,96.20
2023-01-23T07:43:27.999Z,96.40
2023-01-23T07:45:54.666Z,96.10
2023-01-23T07:48:21.468Z,96.00
2023-01-23T07:50:48.107Z,96.10
2023-01-23T07:53:14.774Z,96.00
2023-01-23T07:55:41.489Z,95.80
2023-01-23T07:58:08.327Z,95.60
2023-01-23T08:00:35.112Z,95.60
2023-01-23T08:03:02.124Z,95.60
2023-01-23T08:05:28.833Z,95.60
2023-01-23T08:08:11.426Z,96.00
2023-01-23T08:10:39.094Z,95.90
2023-01-23T08:13:05.781Z,96.00
2023-01-23T08:15:32.439Z,95.90
2023-01-23T08:17:59.070Z,96.00
2023-01-23T08:20:25.739Z,95.70
2023-01-23T08:22:52.495Z,95.90
2023-01-23T08:25:19.197Z,96.00
2023-01-23T08:27:45.820Z,96.10
2023-01-23T08:30:12.855Z,96.20
2023-01-23T08:32:39.615Z,95.40
2023-01-23T08:35:06.646Z,95.50
2023-01-23T08:37:34.338Z,95.40
2023-01-23T08:40:01.272Z,95.80
2023-01-23T08:42:28.048Z,95.70
2023-01-23T08:44:55.485Z,95.60
2023-01-23T08:47:22.339Z,96.20
2023-01-23T08:49:49.376Z,96.30
2023-01-23T08:52:16.299Z,95.70
2023-01-23T08:54:43.018Z,95.30
2023-01-23T08:57:09.654Z,94.90
2023-01-23T08:59:36.352Z,94.70
2023-01-23T09:02:03.330Z,94.50
2023-01-23T09:04:30.092Z,94.70
2023-01-23T09:06:56.741Z,94.70
2023-01-23T09:09:23.475Z,94.40
2023-01-23T09:11:50.115Z,93.70
2023-01-23T09:14:16.794Z,93.40
2023-01-23T09:16:43.508Z,93.10
2023-01-23T09:19:11.987Z,93.30
2023-01-23T09:21:38.789Z,93.20
2023-01-23T09:24:05.698Z,93.20
2023-01-23T09:26:32.325Z,93.20
2023-01-23T09:28:58.960Z,93.00
2023-01-23T09:31:25.691Z,92.70
2023-01-23T09:33:52.500Z,92.80
2023-01-23T09:36:19.679Z,93.40
2023-01-23T09:38:49.255Z,93.30
2023-01-23T09:41:26.853Z,93.20
2023-01-23T09:44:02.971Z,93.10
2023-01-23T09:46:42.502Z,93.10
2023-01-23T09:49:27.025Z,93.30
2023-01-23T09:52:02.405Z,92.40
2023-01-23T09:54:54.770Z,92.10
2023-01-23T09:57:32.748Z,92.00
2023-01-23T10:00:15.422Z,92.10
2023-01-23T10:02:46.661Z,92.70
2023-01-23T10:05:18.437Z,92.70
2023-01-23T10:08:36.107Z,92.80
2023-01-23T10:11:22.994Z,92.90
2023-01-23T10:14:06.792Z,91.90
2023-01-23T10:17:09.245Z,91.80
2023-01-23T10:20:14.925Z,92.50
2023-01-23T10:22:51.369Z,92.80
2023-01-23T10:25:22.817Z,93.00
2023-01-23T10:27:51.220Z,93.00
2023-01-23T10:30:33.344Z,93.50
2023-01-23T10:33:15.054Z,93.90
2023-01-23T10:35:56.326Z,93.50
2023-01-23T10:38:27.573Z,93.00
2023-01-23T10:41:13.084Z,93.40
2023-01-23T10:43:49.885Z,93.80
2023-01-23T10:46:24.091Z,93.90
2023-01-23T10:48:54.862Z,93.80
2023-01-23T10:51:47.415Z,93.20
2023-01-23T10:54:31.779Z,93.90
2023-01-23T10:57:21.328Z,94.00
2023-01-23T10:59:54.527Z,94.20
2023-01-23T11:02:30.965Z,94.20
2023-01-23T11:04:58.636Z,94.40
2023-01-23T11:07:36.653Z,93.80
2023-01-23T11:10:21.388Z,93.60
2023-01-23T11:12:56.764Z,94.20
2023-01-23T11:15:29.614Z,94.50
2023-01-23T11:17:58.538Z,94.30
2023-01-23T11:20:37.125Z,94.40
2023-01-23T11:23:11.924Z,94.30
2023-01-23T11:25:51.448Z,94.30
2023-01-23T11:28:30.735Z,94.10
2023-01-23T11:31:15.526Z,94.30
2023-01-23T11:34:10.732Z,94.00
2023-01-23T11:37:14.894Z,94.20
2023-01-23T11:39:55.568Z,94.20
2023-01-23T11:42:28.534Z,94.70
2023-01-23T11:44:59.497Z,94.20
2023-01-23T11:47:47.728Z,94.30
2023-01-23T11:50:17.826Z,94.30
2023-01-23T11:52:56.516Z,93.40
2023-01-23T11:55:38.707Z,93.80
2023-01-23T11:58:37.171Z,94.00
2023-01-23T12:01:49.246Z,93.50
2023-01-23T12:04:29.947Z,93.80
2023-01-23T12:07:05.027Z,92.80
2023-01-23T12:10:02.541Z,93.60
2023-01-23T12:12:51.931Z,94.20
2023-01-23T12:15:25.669Z,94.00
2023-01-23T12:18:27.021Z,94.30
2023-01-23T12:20:59.739Z,94.70
2023-01-23T12:23:53.293Z,95.00
2023-01-23T12:26:22.564Z,95.20
2023-01-23T12:29:10.777Z,95.70
2023-01-23T12:32:02.532Z,95.40
2023-01-23T12:34:45.678Z,96.10
2023-01-23T12:37:38.266Z,96.10
2023-01-23T12:40:24.224Z,96.00
2023-01-23T12:43:17.039Z,95.90
2023-01-23T12:45:56.175Z,95.40
2023-01-23T12:48:34.825Z,95.30
2023-01-23T12:51:16.528Z,96.10
2023-01-23T12:53:45.357Z,96.40
2023-01-23T12:56:19.217Z,96.80
2023-01-23T12:58:59.612Z,96.00
2023-01-23T13:01:26.229Z,96.00
2023-01-23T13:04:20.971Z,95.80
2023-01-23T13:07:04.348Z,95.90
2023-01-23T13:09:37.108Z,96.20
2023-01-23T13:12:27.369Z,96.30
2023-01-23T13:15:15.008Z,96.50
2023-01-23T13:17:58.092Z,96.20
2023-01-23T13:20:55.215Z,95.00
2023-01-23T13:23:23.488Z,95.10
2023-01-23T13:26:10.619Z,94.90
2023-01-23T13:28:45.111Z,94.90
2023-01-23T13:31:47.684Z,94.80
2023-01-23T13:34:17.747Z,94.20
2023-01-23T13:36:46.055Z,94.00
2023-01-23T13:39:19.628Z,93.90
2023-01-23T13:42:12.708Z,93.70
2023-01-23T13:45:17.997Z,94.00
2023-01-23T14:22:31.583Z,94.30
2023-01-23T14:24:59.025Z,93.30
2023-01-23T14:27:31.069Z,93.70
2023-01-23T14:29:59.939Z,93.80
2023-01-23T14:32:30.632Z,93.70
2023-01-23T14:34:57.438Z,94.00
2023-01-23T14:37:25.556Z,93.50
2023-01-23T14:39:53.820Z,92.90
2023-01-23T14:42:30.177Z,92.90
2023-01-23T14:45:00.665Z,92.50
2023-01-23T14:47:34.536Z,92.50
2023-01-23T14:50:03.519Z,92.40
2023-01-23T14:52:31.390Z,92.50
2023-01-23T14:55:05.817Z,92.40
2023-01-23T14:57:35.926Z,93.20
2023-01-23T15:00:03.576Z,93.10
2023-01-23T15:02:33.452Z,92.80
2023-01-23T15:05:09.335Z,93.00
2023-01-23T15:07:48.781Z,93.20
2023-01-23T15:10:25.424Z,93.10
2023-01-23T15:13:09.984Z,93.00
2023-01-23T15:15:37.422Z,92.60
2023-01-23T15:18:16.774Z,92.60
2023-01-23T15:20:56.871Z,92.40
2023-01-23T15:23:31.551Z,92.30
2023-01-23T15:26:12.463Z,92.30
2023-01-23T15:28:50.873Z,91.90
2023-01-23T15:31:22.633Z,91.90
2023-01-23T15:33:49.675Z,91.60
2023-01-23T15:36:25.632Z,91.40
2023-01-23T15:38:53.009Z,91.30
2023-01-23T15:41:33.875Z,91.40
2023-01-23T15:44:01.093Z,91.50
2023-01-23T15:46:27.798Z,91.40
2023-01-23T15:48:54.460Z,91.90
2023-01-23T15:51:21.320Z,92.20
2023-01-23T15:53:48.076Z,92.60
2023-01-23T15:56:25.587Z,92.50
2023-01-23T15:58:52.205Z,92.20
2023-01-23T16:01:18.994Z,92.50
2023-01-23T16:03:45.767Z,92.80
2023-01-23T16:06:20.998Z,93.00
2023-01-23T16:08:55.037Z,93.40
2023-01-23T16:11:31.079Z,93.30
2023-01-23T16:13:57.856Z,93.40
2023-01-23T16:16:27.972Z,93.40
2023-01-23T16:18:54.748Z,93.90
2023-01-23T16:21:26.904Z,93.90
2023-01-23T16:23:54.647Z,94.30
2023-01-23T16:26:24.311Z,94.00
2023-01-23T16:28:52.861Z,94.10
2023-01-23T16:31:21.009Z,94.30
2023-01-23T16:33:47.884Z,94.60
2023-01-23T16:36:16.681Z,94.60
2023-01-23T16:38:50.005Z,94.70
2023-01-23T16:41:17.580Z,94.40
2023-01-23T16:43:47.283Z,94.50
2023-01-23T16:46:14.737Z,94.50
2023-01-23T16:48:41.783Z,94.40
2023-01-23T16:51:19.215Z,94.60
2023-01-23T16:53:52.588Z,94.10
2023-01-23T16:56:36.817Z,94.10
2023-01-23T16:59:20.583Z,94.20
2023-01-23T17:01:52.111Z,94.30
2023-01-23T17:04:21.852Z,94.50
2023-01-23T17:06:50.374Z,94.90
2023-01-23T17:09:19.679Z,95.30
2023-01-23T17:11:57.385Z,95.80
2023-01-23T17:14:28.986Z,95.80
2023-01-23T17:17:02.819Z,95.50
2023-01-23T17:19:39.156Z,95.40
2023-01-23T17:22:08.889Z,94.90
2023-01-23T17:24:36.294Z,95.00
2023-01-23T17:27:03.353Z,95.00
2023-01-23T17:29:30.967Z,95.10
2023-01-23T17:31:57.850Z,95.40
2023-01-23T17:34:48.676Z,95.90
2023-01-23T17:37:20.882Z,96.10
2023-01-23T17:39:48.293Z,96.00
2023-01-23T17:42:21.665Z,95.50
2023-01-23T17:44:49.863Z,95.80
2023-01-23T17:47:17.323Z,95.60
2023-01-23T17:49:54.464Z,95.70
2023-01-23T17:52:22.008Z,96.10
2023-01-23T17:54:49.967Z,96.40
2023-01-23T17:57:17.113Z,95.90
2023-01-23T17:59:56.746Z,95.30
2023-01-23T18:02:28.883Z,94.60
2023-01-23T18:05:00.168Z,94.30
2023-01-23T18:07:27.103Z,94.20
2023-01-23T18:09:57.593Z,93.90
2023-01-23T18:13:18.466Z,93.70
2023-01-23T18:16:12.742Z,94.40
2023-01-23T18:18:42.170Z,94.00
2023-01-23T18:21:18.335Z,93.90
2023-01-23T18:23:46.758Z,93.80
2023-01-23T18:26:42.620Z,94.10
2023-01-23T18:29:33.764Z,93.80
2023-01-23T18:32:24.317Z,93.90
2023-01-23T18:34:56.615Z,93.70
2023-01-23T18:37:44.990Z,93.40
2023-01-23T18:40:44.520Z,93.70
2023-01-23T18:43:26.955Z,93.70
2023-01-23T18:45:55.764Z,93.80
2023-01-23T18:48:25.901Z,93.90
2023-01-23T18:51:15.216Z,93.30
2023-01-23T18:54:03.909Z,93.40
2023-01-23T19:01:47.692Z,93.20
2023-01-23T19:04:18.109Z,92.90
2023-01-23T19:06:48.973Z,92.90
2023-01-23T19:09:20.928Z,93.20
2023-01-23T19:11:59.930Z,93.50
2023-01-23T19:14:43.060Z,93.20
2023-01-23T19:17:45.580Z,93.10
2023-01-23T19:20:34.794Z,93.50
2023-01-23T19:23:20.280Z,93.80
2023-01-23T19:25:48.052Z,95.00
2023-01-23T19:28:17.755Z,95.20
2023-01-23T19:30:45.004Z,94.90
2023-01-23T19:33:19.560Z,94.90
2023-01-23T19:35:51.277Z,94.70
2023-01-23T19:38:18.046Z,94.80
2023-01-23T19:40:48.220Z,94.80
2023-01-23T19:43:16.963Z,94.50
2023-01-23T19:45:45.104Z,94.70
2023-01-23T19:48:12.578Z,94.70
2023-01-23T19:50:43.420Z,94.80
2023-01-23T19:53:13.944Z,95.40
2023-01-23T19:55:43.925Z,95.80
2023-01-23T19:58:10.981Z,95.00
2023-01-23T20:00:37.677Z,95.50
2023-01-23T20:03:05.101Z,95.30
2023-01-23T20:05:32.505Z,95.10
2023-01-23T20:08:00.968Z,95.00
2023-01-23T20:10:28.357Z,94.80
2023-01-23T20:12:56.579Z,95.00
2023-01-23T20:15:25.868Z,94.50
2023-01-23T20:17:53.552Z,94.30
2023-01-23T20:20:21.781Z,94.20
2023-01-23T20:22:48.666Z,94.10
2023-01-23T20:25:16.747Z,94.50
2023-01-23T20:27:44.075Z,94.40
2023-01-23T20:30:19.689Z,94.50
2023-01-23T20:32:46.655Z,94.80
2023-01-23T20:35:13.431Z,94.50
2023-01-23T20:37:40.315Z,94.10
2023-01-23T20:40:11.708Z,94.30
2023-01-23T20:42:42.349Z,94.50
2023-01-23T20:45:09.908Z,94.70
2023-01-23T20:47:37.242Z,94.80
2023-01-23T20:50:04.723Z,94.90
2023-01-23T20:52:50.424Z,95.20
2023-01-23T20:55:17.614Z,95.00
2023-01-23T20:58:03.526Z,95.30
2023-01-23T21:00:33.196Z,95.50
2023-01-23T21:03:00.790Z,95.30
2023-01-23T21:05:27.516Z,95.20
2023-01-23T21:07:54.295Z,95.60
2023-01-23T21:10:21.600Z,96.10
2023-01-23T21:12:49.765Z,95.90
2023-01-23T21:15:16.586Z,95.80
2023-01-23T21:17:43.451Z,95.90
2023-01-23T21:20:11.196Z,95.40
2023-01-23T21:22:38.187Z,95.80
2023-01-23T21:25:05.383Z,96.40
2023-01-23T21:27:32.337Z,96.70
2023-01-23T21:29:59.141Z,96.60
2023-01-23T21:32:25.802Z,96.40
2023-01-23T21:34:52.576Z,95.90
2023-01-23T21:37:20.142Z,95.30
2023-01-23T21:39:46.927Z,95.10
2023-01-23T21:42:13.568Z,94.80
2023-01-23T21:44:40.978Z,95.00
2023-01-23T21:47:10.297Z,94.70
2023-01-23T21:49:37.677Z,95.00
2023-01-23T21:52:07.874Z,94.30
2023-01-23T21:54:37.404Z,94.40
2023-01-23T21:57:04.857Z,94.40
2023-01-23T21:59:32.138Z,94.30
2023-01-23T22:01:59.079Z,94.20
2023-01-23T22:04:26.127Z,94.20
2023-01-23T22:06:58.696Z,94.50
2023-01-23T22:09:26.386Z,94.90
2023-01-23T22:11:56.900Z,95.20
2023-01-23T22:14:24.859Z,95.60
2023-01-23T22:16:54.390Z,95.50
2023-01-23T22:19:25.664Z,95.50
2023-01-23T22:21:54.420Z,94.90
2023-01-23T22:24:21.603Z,94.40
2023-01-23T22:26:49.574Z,94.60
2023-01-23T22:29:16.482Z,94.70
2023-01-23T22:31:43.708Z,94.40
2023-01-23T22:34:11.006Z,94.00
2023-01-23T22:36:37.718Z,94.20
2023-01-23T22:39:04.644Z,94.30
2023-01-23T22:41:32.096Z,94.60
2023-01-23T22:44:01.798Z,94.60
2023-01-23T22:46:29.185Z,94.30
2023-01-23T22:48:55.890Z,94.20
2023-01-23T22:51:26.129Z,94.40
2023-01-23T22:53:54.085Z,94.50
2023-01-23T22:56:21.815Z,94.10
2023-01-23T22:58:50.307Z,93.80
2023-01-23T23:01:17.615Z,94.30
2023-01-23T23:03:44.843Z,94.30
2023-01-23T23:06:13.710Z,94.10
2023-01-23T23:08:40.514Z,93.60
2023-01-23T23:11:13.141Z,93.60
2023-01-23T23:13:40.864Z,93.40
2023-01-23T23:16:17.969Z,93.70
2023-01-23T23:18:47.071Z,93.60
2023-01-23T23:21:15.733Z,93.50
2023-01-23T23:23:42.654Z,93.40
2023-01-23T23:26:11.176Z,94.00
2023-01-23T23:28:38.823Z,94.60
2023-01-23T23:31:07.473Z,95.00
2023-01-23T23:33:34.476Z,95.30
2023-01-23T23:36:01.544Z,95.70
2023-01-23T23:38:28.345Z,95.80
2023-01-23T23:41:03.335Z,95.20
2023-01-23T23:43:30.371Z,95.50
2023-01-23T23:46:00.311Z,95.40
2023-01-23T23:48:28.563Z,95.40
2023-01-23T23:50:56.623Z,95.20
2023-01-23T23:53:23.737Z,94.40
2023-01-23T23:55:51.057Z,94.80
2023-01-23T23:58:17.870Z,94.80
